sensor_id;sensor_type;location;lat;lon;timestamp;pressure;altitude;pressure_sealevel;temperature;humidity
9740;BME280;4909;42.680;26.324;2023-05-29T00:01:54;98116.31;;;19.14;94.89
9740;BME280;4909;42.680;26.324;2023-05-29T00:04:20;98109.38;;;19.11;94.93
9740;BME280;4909;42.680;26.324;2023-05-29T00:06:48;98121.72;;;19.23;94.45
9740;BME280;4909;42.680;26.324;2023-05-29T00:09:16;98120.03;;;19.22;95.07
9740;BME280;4909;42.680;26.324;2023-05-29T00:11:44;98101.81;;;19.05;94.58
9740;BME280;4909;42.680;26.324;2023-05-29T00:14:16;98137.97;;;19.12;93.61
9740;BME280;4909;42.680;26.324;2023-05-29T00:16:44;98127.75;;;19.06;94.16
9740;BME280;4909;42.680;26.324;2023-05-29T00:19:12;98109.91;;;18.84;94.89
9740;BME280;4909;42.680;26.324;2023-05-29T00:21:39;98130.16;;;18.88;94.73
9740;BME280;4909;42.680;26.324;2023-05-29T00:24:06;98138.13;;;18.90;94.46
9740;BME280;4909;42.680;26.324;2023-05-29T00:26:32;98134.84;;;18.86;95.31
9740;BME280;4909;42.680;26.324;2023-05-29T00:29:00;98158.53;;;18.92;94.65
9740;BME280;4909;42.680;26.324;2023-05-29T00:31:27;98161.28;;;18.81;94.77
9740;BME280;4909;42.680;26.324;2023-05-29T00:33:54;98166.53;;;18.83;94.25
9740;BME280;4909;42.680;26.324;2023-05-29T00:36:21;98178.97;;;18.84;94.52
9740;BME280;4909;42.680;26.324;2023-05-29T00:38:49;98143.03;;;18.64;94.33
9740;BME280;4909;42.680;26.324;2023-05-29T00:41:16;98170.38;;;18.90;94.96
9740;BME280;4909;42.680;26.324;2023-05-29T00:43:43;98172.81;;;18.93;95.51
9740;BME280;4909;42.680;26.324;2023-05-29T00:46:13;98171.81;;;18.94;94.38
9740;BME280;4909;42.680;26.324;2023-05-29T00:48:41;98184.28;;;18.95;94.18
9740;BME280;4909;42.680;26.324;2023-05-29T00:51:09;98188.88;;;19.04;96.39
9740;BME280;4909;42.680;26.324;2023-05-29T00:53:37;98189.31;;;19.30;93.57
9740;BME280;4909;42.680;26.324;2023-05-29T00:56:05;98192.06;;;19.39;94.74
9740;BME280;4909;42.680;26.324;2023-05-29T00:58:33;98192.16;;;19.49;93.78
9740;BME280;4909;42.680;26.324;2023-05-29T01:01:00;98156.63;;;19.34;93.01
9740;BME280;4909;42.680;26.324;2023-05-29T01:03:30;98181.53;;;19.57;91.21
9740;BME280;4909;42.680;26.324;2023-05-29T01:05:57;98193.34;;;19.66;91.52
9740;BME280;4909;42.680;26.324;2023-05-29T01:08:24;98192.19;;;19.59;93.07
9740;BME280;4909;42.680;26.324;2023-05-29T01:10:51;98177.34;;;19.64;93.82
9740;BME280;4909;42.680;26.324;2023-05-29T01:13:27;98195.75;;;19.59;91.47
9740;BME280;4909;42.680;26.324;2023-05-29T01:15:58;98193.03;;;19.59;93.20
9740;BME280;4909;42.680;26.324;2023-05-29T01:18:37;98188.69;;;19.68;92.86
9740;BME280;4909;42.680;26.324;2023-05-29T01:21:11;98194.59;;;19.62;93.41
9740;BME280;4909;42.680;26.324;2023-05-29T01:23:52;98191.81;;;19.73;93.92
9740;BME280;4909;42.680;26.324;2023-05-29T01:26:42;98172.13;;;19.72;94.13
9740;BME280;4909;42.680;26.324;2023-05-29T01:29:14;98192.16;;;19.89;93.48
9740;BME280;4909;42.680;26.324;2023-05-29T01:31:42;98190.88;;;19.83;92.46
9740;BME280;4909;42.680;26.324;2023-05-29T01:34:10;98192.00;;;19.90;93.53
9740;BME280;4909;42.680;26.324;2023-05-29T01:36:36;98186.06;;;19.87;93.61
9740;BME280;4909;42.680;26.324;2023-05-29T01:39:03;98159.94;;;19.78;93.06
9740;BME280;4909;42.680;26.324;2023-05-29T01:41:31;98180.28;;;20.01;93.54
9740;BME280;4909;42.680;26.324;2023-05-29T01:44:02;98167.38;;;20.05;91.02
9740;BME280;4909;42.680;26.324;2023-05-29T01:46:30;98181.03;;;20.13;91.69
9740;BME280;4909;42.680;26.324;2023-05-29T01:48:57;98162.69;;;19.97;92.10
9740;BME280;4909;42.680;26.324;2023-05-29T01:51:24;98173.16;;;19.90;91.79
9740;BME280;4909;42.680;26.324;2023-05-29T01:53:51;98177.66;;;19.80;92.15
9740;BME280;4909;42.680;26.324;2023-05-29T01:56:18;98174.66;;;19.64;93.23
9740;BME280;4909;42.680;26.324;2023-05-29T01:58:45;98182.72;;;19.64;95.48
9740;BME280;4909;42.680;26.324;2023-05-29T02:01:14;98182.56;;;19.66;94.80
9740;BME280;4909;42.680;26.324;2023-05-29T02:03:41;98184.75;;;19.81;93.15
9740;BME280;4909;42.680;26.324;2023-05-29T02:06:08;98171.25;;;19.72;94.39
9740;BME280;4909;42.680;26.324;2023-05-29T02:08:36;98180.22;;;19.82;93.54
9740;BME280;4909;42.680;26.324;2023-05-29T02:11:02;98182.75;;;19.74;93.28
9740;BME280;4909;42.680;26.324;2023-05-29T02:13:29;98178.50;;;19.81;94.68
9740;BME280;4909;42.680;26.324;2023-05-29T02:15:56;98179.34;;;19.72;94.47
9740;BME280;4909;42.680;26.324;2023-05-29T02:18:24;98175.81;;;19.81;93.22
9740;BME280;4909;42.680;26.324;2023-05-29T02:20:51;98192.19;;;19.59;92.99
9740;BME280;4909;42.680;26.324;2023-05-29T02:23:18;98185.50;;;19.53;93.34
9740;BME280;4909;42.680;26.324;2023-05-29T02:25:45;98196.84;;;19.57;94.92
9740;BME280;4909;42.680;26.324;2023-05-29T02:28:12;98196.88;;;19.66;93.36
9740;BME280;4909;42.680;26.324;2023-05-29T02:30:39;98199.13;;;19.61;93.49
9740;BME280;4909;42.680;26.324;2023-05-29T02:33:05;98194.47;;;19.63;93.72
9740;BME280;4909;42.680;26.324;2023-05-29T02:35:35;98194.72;;;19.50;93.68
9740;BME280;4909;42.680;26.324;2023-05-29T02:38:02;98201.41;;;19.66;92.59
9740;BME280;4909;42.680;26.324;2023-05-29T02:40:28;98200.31;;;19.68;92.58
9740;BME280;4909;42.680;26.324;2023-05-29T02:42:55;98201.88;;;19.71;93.67
9740;BME280;4909;42.680;26.324;2023-05-29T02:45:22;98201.66;;;19.53;93.23
9740;BME280;4909;42.680;26.324;2023-05-29T02:47:49;98204.88;;;19.47;93.53
9740;BME280;4909;42.680;26.324;2023-05-29T02:50:16;98187.16;;;19.44;94.30
9740;BME280;4909;42.680;26.324;2023-05-29T02:52:44;98201.53;;;19.55;94.83
9740;BME280;4909;42.680;26.324;2023-05-29T02:55:10;98201.84;;;19.40;94.37
9740;BME280;4909;42.680;26.324;2023-05-29T02:57:37;98213.31;;;19.42;94.85
9740;BME280;4909;42.680;26.324;2023-05-29T03:00:05;98213.72;;;19.38;95.70
9740;BME280;4909;42.680;26.324;2023-05-29T03:02:33;98221.84;;;19.27;94.84
9740;BME280;4909;42.680;26.324;2023-05-29T03:05:00;98225.41;;;19.27;96.25
9740;BME280;4909;42.680;26.324;2023-05-29T03:07:27;98227.91;;;19.40;96.92
9740;BME280;4909;42.680;26.324;2023-05-29T03:09:55;98223.47;;;19.50;96.72
9740;BME280;4909;42.680;26.324;2023-05-29T03:12:22;98232.53;;;19.49;95.98
9740;BME280;4909;42.680;26.324;2023-05-29T03:14:49;98228.75;;;19.40;95.41
9740;BME280;4909;42.680;26.324;2023-05-29T03:17:15;98214.91;;;19.24;95.17
9740;BME280;4909;42.680;26.324;2023-05-29T03:19:42;98238.16;;;19.25;96.30
9740;BME280;4909;42.680;26.324;2023-05-29T03:22:09;98235.91;;;19.09;96.72
9740;BME280;4909;42.680;26.324;2023-05-29T03:24:35;98245.38;;;19.04;95.96
9740;BME280;4909;42.680;26.324;2023-05-29T03:27:04;98247.66;;;19.08;95.27
9740;BME280;4909;42.680;26.324;2023-05-29T03:29:31;98243.97;;;18.89;96.93
9740;BME280;4909;42.680;26.324;2023-05-29T03:31:58;98212.88;;;18.75;99.14
9740;BME280;4909;42.680;26.324;2023-05-29T03:34:25;98241.75;;;18.94;98.70
9740;BME280;4909;42.680;26.324;2023-05-29T03:36:53;98261.66;;;19.02;96.90
9740;BME280;4909;42.680;26.324;2023-05-29T03:39:19;98263.47;;;19.02;96.65
9740;BME280;4909;42.680;26.324;2023-05-29T03:41:46;98267.47;;;19.07;96.81
9740;BME280;4909;42.680;26.324;2023-05-29T03:44:14;98261.50;;;19.25;98.59
9740;BME280;4909;42.680;26.324;2023-05-29T03:46:41;98272.91;;;19.17;96.74
9740;BME280;4909;42.680;26.324;2023-05-29T03:49:08;98270.78;;;19.52;98.31
9740;BME280;4909;42.680;26.324;2023-05-29T03:51:35;98272.25;;;19.87;96.88
9740;BME280;4909;42.680;26.324;2023-05-29T03:54:02;98244.56;;;19.85;94.63
9740;BME280;4909;42.680;26.324;2023-05-29T03:56:29;98238.22;;;19.86;95.36
9740;BME280;4909;42.680;26.324;2023-05-29T03:58:56;98265.25;;;20.15;95.63
9740;BME280;4909;42.680;26.324;2023-05-29T04:01:24;98232.28;;;19.92;94.70
9740;BME280;4909;42.680;26.324;2023-05-29T04:03:51;98253.50;;;20.16;95.36
9740;BME280;4909;42.680;26.324;2023-05-29T04:06:18;98227.19;;;19.89;92.70
9740;BME280;4909;42.680;26.324;2023-05-29T04:08:44;98264.97;;;19.78;94.60
9740;BME280;4909;42.680;26.324;2023-05-29T04:11:11;98268.78;;;19.75;94.50
9740;BME280;4909;42.680;26.324;2023-05-29T04:13:38;98250.44;;;19.60;94.55
9740;BME280;4909;42.680;26.324;2023-05-29T04:16:06;98256.91;;;19.78;97.04
9740;BME280;4909;42.680;26.324;2023-05-29T04:18:34;98261.56;;;19.76;95.03
9740;BME280;4909;42.680;26.324;2023-05-29T04:21:01;98254.56;;;19.94;96.36
9740;BME280;4909;42.680;26.324;2023-05-29T04:23:28;98252.81;;;19.83;96.76
9740;BME280;4909;42.680;26.324;2023-05-29T04:25:55;98245.31;;;19.87;97.41
9740;BME280;4909;42.680;26.324;2023-05-29T04:28:21;98231.22;;;20.04;96.24
9740;BME280;4909;42.680;26.324;2023-05-29T04:30:49;98249.31;;;20.32;96.07
9740;BME280;4909;42.680;26.324;2023-05-29T04:33:17;98231.66;;;20.19;95.95
9740;BME280;4909;42.680;26.324;2023-05-29T04:35:47;98245.97;;;20.19;96.28
9740;BME280;4909;42.680;26.324;2023-05-29T04:38:14;98250.66;;;20.17;95.65
9740;BME280;4909;42.680;26.324;2023-05-29T04:40:42;98243.84;;;20.13;94.67
9740;BME280;4909;42.680;26.324;2023-05-29T04:43:09;98233.34;;;20.20;96.28
9740;BME280;4909;42.680;26.324;2023-05-29T04:45:36;98185.31;;;19.85;95.63
9740;BME280;4909;42.680;26.324;2023-05-29T04:48:03;98248.47;;;20.32;96.16
9740;BME280;4909;42.680;26.324;2023-05-29T04:50:30;98239.31;;;20.14;95.39
9740;BME280;4909;42.680;26.324;2023-05-29T04:52:58;98249.41;;;20.21;95.95
9740;BME280;4909;42.680;26.324;2023-05-29T04:55:25;98251.09;;;20.22;96.31
9740;BME280;4909;42.680;26.324;2023-05-29T04:57:52;98260.44;;;20.09;96.52
9740;BME280;4909;42.680;26.324;2023-05-29T05:00:20;98211.00;;;19.79;95.13
9740;BME280;4909;42.680;26.324;2023-05-29T05:02:49;98251.97;;;20.23;96.69
9740;BME280;4909;42.680;26.324;2023-05-29T05:05:16;98258.91;;;20.25;96.45
9740;BME280;4909;42.680;26.324;2023-05-29T05:07:43;98235.63;;;20.24;94.46
9740;BME280;4909;42.680;26.324;2023-05-29T05:10:11;98254.00;;;20.40;93.99
9740;BME280;4909;42.680;26.324;2023-05-29T05:12:38;98251.03;;;20.53;93.98
9740;BME280;4909;42.680;26.324;2023-05-29T05:15:06;98255.19;;;20.47;92.75
9740;BME280;4909;42.680;26.324;2023-05-29T05:17:33;98264.25;;;20.56;93.10
9740;BME280;4909;42.680;26.324;2023-05-29T05:19:59;98244.41;;;20.66;92.13
9740;BME280;4909;42.680;26.324;2023-05-29T05:22:26;98259.88;;;20.64;91.53
9740;BME280;4909;42.680;26.324;2023-05-29T05:24:53;98245.28;;;20.67;92.77
9740;BME280;4909;42.680;26.324;2023-05-29T05:27:21;98245.66;;;20.62;92.17
9740;BME280;4909;42.680;26.324;2023-05-29T05:29:48;98254.78;;;20.71;91.54
9740;BME280;4909;42.680;26.324;2023-05-29T05:32:15;98250.34;;;20.51;91.63
9740;BME280;4909;42.680;26.324;2023-05-29T05:34:41;98218.47;;;20.16;91.14
9740;BME280;4909;42.680;26.324;2023-05-29T05:37:08;98256.69;;;20.30;91.55
9740;BME280;4909;42.680;26.324;2023-05-29T05:39:35;98268.94;;;20.54;92.46
9740;BME280;4909;42.680;26.324;2023-05-29T05:42:02;98265.69;;;20.60;91.64
9740;BME280;4909;42.680;26.324;2023-05-29T05:44:30;98269.81;;;20.64;91.25
9740;BME280;4909;42.680;26.324;2023-05-29T05:46:57;98269.53;;;20.67;91.90
9740;BME280;4909;42.680;26.324;2023-05-29T05:49:24;98271.22;;;20.77;91.75
9740;BME280;4909;42.680;26.324;2023-05-29T05:51:50;98259.31;;;20.80;91.17
9740;BME280;4909;42.680;26.324;2023-05-29T05:54:17;98271.81;;;20.91;90.53
9740;BME280;4909;42.680;26.324;2023-05-29T05:56:44;98263.00;;;20.89;91.07
9740;BME280;4909;42.680;26.324;2023-05-29T05:59:10;98268.53;;;20.68;89.76
9740;BME280;4909;42.680;26.324;2023-05-29T06:01:39;98277.22;;;20.81;90.75
9740;BME280;4909;42.680;26.324;2023-05-29T06:04:06;98270.66;;;20.64;91.21
9740;BME280;4909;42.680;26.324;2023-05-29T06:06:34;98263.56;;;20.63;91.32
9740;BME280;4909;42.680;26.324;2023-05-29T06:09:01;98270.78;;;20.72;90.66
9740;BME280;4909;42.680;26.324;2023-05-29T06:11:29;98262.72;;;20.72;89.98
9740;BME280;4909;42.680;26.324;2023-05-29T06:13:57;98274.22;;;20.84;89.75
9740;BME280;4909;42.680;26.324;2023-05-29T06:16:23;98265.84;;;20.77;89.66
9740;BME280;4909;42.680;26.324;2023-05-29T06:18:52;98273.94;;;20.97;89.32
9740;BME280;4909;42.680;26.324;2023-05-29T06:21:18;98266.84;;;21.05;88.90
9740;BME280;4909;42.680;26.324;2023-05-29T06:23:46;98256.50;;;21.01;88.62
9740;BME280;4909;42.680;26.324;2023-05-29T06:26:12;98265.16;;;21.04;88.64
9740;BME280;4909;42.680;26.324;2023-05-29T06:28:41;98239.03;;;20.95;88.51
9740;BME280;4909;42.680;26.324;2023-05-29T06:31:08;98245.41;;;20.94;88.67
9740;BME280;4909;42.680;26.324;2023-05-29T06:33:35;98258.75;;;20.96;88.69
9740;BME280;4909;42.680;26.324;2023-05-29T06:36:04;98253.50;;;20.94;89.45
9740;BME280;4909;42.680;26.324;2023-05-29T06:38:32;98230.63;;;20.79;89.06
9740;BME280;4909;42.680;26.324;2023-05-29T06:40:58;98206.06;;;20.72;88.38
9740;BME280;4909;42.680;26.324;2023-05-29T06:43:25;98223.09;;;20.92;88.03
9740;BME280;4909;42.680;26.324;2023-05-29T06:45:52;98254.63;;;21.20;87.92
9740;BME280;4909;42.680;26.324;2023-05-29T06:48:19;98237.19;;;21.05;85.43
9740;BME280;4909;42.680;26.324;2023-05-29T06:50:46;98264.72;;;21.38;85.97
9740;BME280;4909;42.680;26.324;2023-05-29T06:53:14;98268.38;;;21.56;85.21
9740;BME280;4909;42.680;26.324;2023-05-29T06:55:41;98222.06;;;21.41;83.15
9740;BME280;4909;42.680;26.324;2023-05-29T06:58:08;98264.28;;;21.98;83.26
9740;BME280;4909;42.680;26.324;2023-05-29T07:00:35;98266.38;;;22.32;80.22
9740;BME280;4909;42.680;26.324;2023-05-29T07:03:02;98266.31;;;22.69;79.60
9740;BME280;4909;42.680;26.324;2023-05-29T07:05:28;98266.50;;;23.03;80.34
9740;BME280;4909;42.680;26.324;2023-05-29T07:07:55;98271.00;;;23.12;76.57
9740;BME280;4909;42.680;26.324;2023-05-29T07:10:23;98270.38;;;23.18;75.46
9740;BME280;4909;42.680;26.324;2023-05-29T07:12:50;98279.91;;;23.04;77.33
9740;BME280;4909;42.680;26.324;2023-05-29T07:15:17;98281.66;;;22.95;78.56
9740;BME280;4909;42.680;26.324;2023-05-29T07:17:44;98266.75;;;22.74;78.67
9740;BME280;4909;42.680;26.324;2023-05-29T07:20:11;98277.13;;;22.69;79.33
9740;BME280;4909;42.680;26.324;2023-05-29T07:22:40;98258.72;;;22.54;79.12
9740;BME280;4909;42.680;26.324;2023-05-29T07:25:07;98258.00;;;22.35;81.38
9740;BME280;4909;42.680;26.324;2023-05-29T07:27:35;98270.44;;;22.18;81.89
9740;BME280;4909;42.680;26.324;2023-05-29T07:30:03;98259.09;;;22.15;82.51
9740;BME280;4909;42.680;26.324;2023-05-29T07:32:31;98268.78;;;22.17;81.34
9740;BME280;4909;42.680;26.324;2023-05-29T07:34:57;98281.94;;;22.30;79.13
9740;BME280;4909;42.680;26.324;2023-05-29T07:37:27;98277.94;;;22.51;80.77
9740;BME280;4909;42.680;26.324;2023-05-29T07:39:55;98271.78;;;22.59;79.83
9740;BME280;4909;42.680;26.324;2023-05-29T07:42:22;98241.66;;;22.54;80.18
9740;BME280;4909;42.680;26.324;2023-05-29T07:44:50;98273.31;;;22.62;81.34
9740;BME280;4909;42.680;26.324;2023-05-29T07:47:17;98283.13;;;22.45;77.29
9740;BME280;4909;42.680;26.324;2023-05-29T07:49:44;98250.22;;;22.22;79.25
9740;BME280;4909;42.680;26.324;2023-05-29T07:52:11;98283.22;;;22.26;79.34
9740;BME280;4909;42.680;26.324;2023-05-29T07:54:37;98275.84;;;22.18;79.84
9740;BME280;4909;42.680;26.324;2023-05-29T07:57:04;98272.19;;;22.09;81.73
9740;BME280;4909;42.680;26.324;2023-05-29T07:59:34;98275.75;;;22.10;80.77
9740;BME280;4909;42.680;26.324;2023-05-29T08:02:03;98229.53;;;21.66;80.40
9740;BME280;4909;42.680;26.324;2023-05-29T08:04:30;98269.41;;;21.92;80.73
9740;BME280;4909;42.680;26.324;2023-05-29T08:06:57;98283.78;;;21.92;79.94
9740;BME280;4909;42.680;26.324;2023-05-29T08:09:24;98280.53;;;21.79;80.36
9740;BME280;4909;42.680;26.324;2023-05-29T08:11:51;98256.13;;;21.61;80.25
9740;BME280;4909;42.680;26.324;2023-05-29T08:14:18;98270.03;;;21.76;80.84
9740;BME280;4909;42.680;26.324;2023-05-29T08:16:45;98276.53;;;21.93;82.12
9740;BME280;4909;42.680;26.324;2023-05-29T08:19:13;98272.72;;;21.76;81.45
9740;BME280;4909;42.680;26.324;2023-05-29T08:21:39;98227.84;;;21.56;82.08
9740;BME280;4909;42.680;26.324;2023-05-29T08:24:07;98282.78;;;21.93;82.10
9740;BME280;4909;42.680;26.324;2023-05-29T08:26:34;98276.66;;;21.91;80.67
9740;BME280;4909;42.680;26.324;2023-05-29T08:29:01;98268.69;;;21.90;82.38
9740;BME280;4909;42.680;26.324;2023-05-29T08:31:29;98271.44;;;21.80;78.52
9740;BME280;4909;42.680;26.324;2023-05-29T08:33:56;98270.75;;;21.78;80.27
9740;BME280;4909;42.680;26.324;2023-05-29T08:36:24;98281.53;;;21.78;80.66
9740;BME280;4909;42.680;26.324;2023-05-29T08:38:51;98282.63;;;21.85;81.93
9740;BME280;4909;42.680;26.324;2023-05-29T08:41:24;98284.50;;;21.94;82.23
9740;BME280;4909;42.680;26.324;2023-05-29T08:43:52;98281.34;;;21.99;80.63
9740;BME280;4909;42.680;26.324;2023-05-29T08:46:19;98280.75;;;22.05;81.45
9740;BME280;4909;42.680;26.324;2023-05-29T08:48:48;98287.59;;;21.90;78.79
9740;BME280;4909;42.680;26.324;2023-05-29T08:51:19;98260.34;;;21.83;78.65
9740;BME280;4909;42.680;26.324;2023-05-29T08:53:48;98272.19;;;22.09;81.57
9740;BME280;4909;42.680;26.324;2023-05-29T08:56:15;98280.00;;;22.13;79.42
9740;BME280;4909;42.680;26.324;2023-05-29T08:58:43;98288.63;;;22.26;80.40
9740;BME280;4909;42.680;26.324;2023-05-29T09:01:11;98287.19;;;22.31;81.39
9740;BME280;4909;42.680;26.324;2023-05-29T09:03:38;98282.56;;;22.41;83.38
9740;BME280;4909;42.680;26.324;2023-05-29T09:06:07;98274.81;;;22.29;83.10
9740;BME280;4909;42.680;26.324;2023-05-29T09:08:34;98283.88;;;22.37;83.95
9740;BME280;4909;42.680;26.324;2023-05-29T09:11:02;98273.81;;;22.30;84.44
9740;BME280;4909;42.680;26.324;2023-05-29T09:13:29;98291.13;;;22.37;83.59
9740;BME280;4909;42.680;26.324;2023-05-29T09:15:58;98286.38;;;22.21;83.97
9740;BME280;4909;42.680;26.324;2023-05-29T09:18:28;98238.41;;;21.96;84.12
9740;BME280;4909;42.680;26.324;2023-05-29T09:20:56;98288.47;;;22.00;84.47
9740;BME280;4909;42.680;26.324;2023-05-29T09:23:23;98266.69;;;22.01;83.47
9740;BME280;4909;42.680;26.324;2023-05-29T09:25:52;98258.19;;;21.96;84.53
9740;BME280;4909;42.680;26.324;2023-05-29T09:28:22;98227.16;;;21.91;82.86
9740;BME280;4909;42.680;26.324;2023-05-29T09:30:52;98277.03;;;22.16;83.85
9740;BME280;4909;42.680;26.324;2023-05-29T09:33:19;98274.72;;;22.21;83.52
9740;BME280;4909;42.680;26.324;2023-05-29T09:35:47;98273.56;;;22.23;82.74
9740;BME280;4909;42.680;26.324;2023-05-29T09:38:16;98269.00;;;22.24;82.71
9740;BME280;4909;42.680;26.324;2023-05-29T09:40:43;98279.75;;;22.33;82.45
9740;BME280;4909;42.680;26.324;2023-05-29T09:43:13;98271.25;;;22.56;82.65
9740;BME280;4909;42.680;26.324;2023-05-29T09:45:44;98273.97;;;22.56;82.47
9740;BME280;4909;42.680;26.324;2023-05-29T09:48:13;98269.59;;;22.45;82.72
9740;BME280;4909;42.680;26.324;2023-05-29T09:50:40;98253.53;;;22.16;83.69
9740;BME280;4909;42.680;26.324;2023-05-29T09:53:20;98282.28;;;22.07;85.07
9740;BME280;4909;42.680;26.324;2023-05-29T09:55:48;98285.34;;;21.95;85.68
9740;BME280;4909;42.680;26.324;2023-05-29T09:58:17;98287.63;;;21.80;86.69
9740;BME280;4909;42.680;26.324;2023-05-29T10:00:46;98302.19;;;21.60;82.20
9740;BME280;4909;42.680;26.324;2023-05-29T10:03:14;98281.06;;;21.36;83.69
9740;BME280;4909;42.680;26.324;2023-05-29T10:05:41;98246.81;;;21.08;87.00
9740;BME280;4909;42.680;26.324;2023-05-29T10:08:11;98273.94;;;21.25;89.66
9740;BME280;4909;42.680;26.324;2023-05-29T10:10:40;98284.47;;;21.29;89.97
9740;BME280;4909;42.680;26.324;2023-05-29T10:13:11;98245.69;;;21.10;91.96
9740;BME280;4909;42.680;26.324;2023-05-29T10:15:40;98274.22;;;21.42;89.66
9740;BME280;4909;42.680;26.324;2023-05-29T10:18:13;98304.19;;;21.67;90.32
9740;BME280;4909;42.680;26.324;2023-05-29T10:20:41;98300.88;;;21.64;90.03
9740;BME280;4909;42.680;26.324;2023-05-29T10:23:10;98288.81;;;21.68;90.33
9740;BME280;4909;42.680;26.324;2023-05-29T10:25:39;98279.97;;;21.76;88.94
9740;BME280;4909;42.680;26.324;2023-05-29T10:28:07;98289.31;;;21.91;89.74
9740;BME280;4909;42.680;26.324;2023-05-29T10:30:37;98283.06;;;21.90;90.15
9740;BME280;4909;42.680;26.324;2023-05-29T10:33:21;98278.09;;;21.95;89.86
9740;BME280;4909;42.680;26.324;2023-05-29T10:35:57;98288.03;;;21.95;88.92
9740;BME280;4909;42.680;26.324;2023-05-29T10:38:27;98279.75;;;22.06;88.72
9740;BME280;4909;42.680;26.324;2023-05-29T10:40:54;98280.47;;;21.98;87.27
9740;BME280;4909;42.680;26.324;2023-05-29T10:43:32;98269.69;;;21.89;89.79
9740;BME280;4909;42.680;26.324;2023-05-29T10:45:59;98267.00;;;21.79;89.03
9740;BME280;4909;42.680;26.324;2023-05-29T10:48:43;98276.41;;;21.75;89.15
9740;BME280;4909;42.680;26.324;2023-05-29T10:51:28;98238.75;;;21.64;89.44
9740;BME280;4909;42.680;26.324;2023-05-29T10:53:56;98264.03;;;21.82;89.12
9740;BME280;4909;42.680;26.324;2023-05-29T10:56:28;98243.16;;;21.75;89.34
9740;BME280;4909;42.680;26.324;2023-05-29T10:58:58;98253.03;;;21.56;85.43
9740;BME280;4909;42.680;26.324;2023-05-29T11:01:27;98273.09;;;21.44;86.46
9740;BME280;4909;42.680;26.324;2023-05-29T11:04:25;98219.97;;;21.16;87.42
9740;BME280;4909;42.680;26.324;2023-05-29T11:06:52;98281.31;;;21.52;87.86
9740;BME280;4909;42.680;26.324;2023-05-29T11:09:27;98273.63;;;21.57;86.25
9740;BME280;4909;42.680;26.324;2023-05-29T11:12:14;98288.50;;;21.71;86.79
9740;BME280;4909;42.680;26.324;2023-05-29T11:14:54;98280.13;;;21.64;85.69
9740;BME280;4909;42.680;26.324;2023-05-29T11:17:43;98286.53;;;21.73;86.74
9740;BME280;4909;42.680;26.324;2023-05-29T11:20:28;98291.53;;;21.68;83.51
9740;BME280;4909;42.680;26.324;2023-05-29T11:23:02;98283.72;;;21.46;82.91
9740;BME280;4909;42.680;26.324;2023-05-29T11:25:30;98276.75;;;21.62;86.44
9740;BME280;4909;42.680;26.324;2023-05-29T11:27:59;98279.16;;;21.65;85.62
9740;BME280;4909;42.680;26.324;2023-05-29T11:30:26;98294.22;;;21.68;82.55
9740;BME280;4909;42.680;26.324;2023-05-29T11:32:53;98298.34;;;21.62;83.03
9740;BME280;4909;42.680;26.324;2023-05-29T11:35:23;98289.53;;;21.60;84.71
9740;BME280;4909;42.680;26.324;2023-05-29T11:37:50;98297.63;;;21.60;83.03
9740;BME280;4909;42.680;26.324;2023-05-29T11:40:17;98297.19;;;21.65;83.88
9740;BME280;4909;42.680;26.324;2023-05-29T11:42:45;98294.06;;;21.69;83.94
9740;BME280;4909;42.680;26.324;2023-05-29T11:45:15;98301.91;;;21.63;81.27
9740;BME280;4909;42.680;26.324;2023-05-29T11:47:54;98278.34;;;21.46;82.54
9740;BME280;4909;42.680;26.324;2023-05-29T11:50:24;98300.75;;;21.65;81.63
9740;BME280;4909;42.680;26.324;2023-05-29T11:52:51;98288.59;;;21.42;79.45
9740;BME280;4909;42.680;26.324;2023-05-29T11:55:18;98277.50;;;21.26;81.89
9740;BME280;4909;42.680;26.324;2023-05-29T11:57:46;98306.50;;;21.43;82.04
9740;BME280;4909;42.680;26.324;2023-05-29T12:00:14;98296.09;;;21.48;81.76
9740;BME280;4909;42.680;26.324;2023-05-29T12:02:41;98305.75;;;21.51;81.26
9740;BME280;4909;42.680;26.324;2023-05-29T12:05:09;98295.41;;;21.37;82.38
9740;BME280;4909;42.680;26.324;2023-05-29T12:07:46;98291.41;;;21.41;81.64
9740;BME280;4909;42.680;26.324;2023-05-29T12:10:15;98296.53;;;21.44;83.17
9740;BME280;4909;42.680;26.324;2023-05-29T12:12:46;98284.72;;;21.54;84.26
9740;BME280;4909;42.680;26.324;2023-05-29T12:15:13;98300.75;;;21.65;81.04
9740;BME280;4909;42.680;26.324;2023-05-29T12:17:41;98303.88;;;21.71;81.39
9740;BME280;4909;42.680;26.324;2023-05-29T12:20:08;98297.47;;;21.72;81.48
9740;BME280;4909;42.680;26.324;2023-05-29T12:22:37;98303.59;;;21.64;81.42
9740;BME280;4909;42.680;26.324;2023-05-29T12:25:09;98303.19;;;21.59;81.09
9740;BME280;4909;42.680;26.324;2023-05-29T12:27:38;98306.16;;;21.56;80.15
9740;BME280;4909;42.680;26.324;2023-05-29T12:30:09;98294.25;;;21.49;82.74
9740;BME280;4909;42.680;26.324;2023-05-29T12:32:37;98308.00;;;21.65;83.55
9740;BME280;4909;42.680;26.324;2023-05-29T12:35:16;98316.25;;;21.73;82.08
9740;BME280;4909;42.680;26.324;2023-05-29T12:37:44;98306.47;;;21.62;82.74
9740;BME280;4909;42.680;26.324;2023-05-29T12:40:17;98297.19;;;21.65;83.50
9740;BME280;4909;42.680;26.324;2023-05-29T12:42:45;98302.75;;;21.73;82.60
9740;BME280;4909;42.680;26.324;2023-05-29T12:45:12;98299.03;;;21.74;84.72
9740;BME280;4909;42.680;26.324;2023-05-29T12:47:48;98283.28;;;21.60;83.81
9740;BME280;4909;42.680;26.324;2023-05-29T12:50:25;98310.44;;;21.68;85.43
9740;BME280;4909;42.680;26.324;2023-05-29T12:52:54;98298.06;;;21.56;83.38
9740;BME280;4909;42.680;26.324;2023-05-29T12:55:22;98309.13;;;21.72;83.56
9740;BME280;4909;42.680;26.324;2023-05-29T12:57:49;98312.72;;;21.63;84.50
9740;BME280;4909;42.680;26.324;2023-05-29T13:00:16;98312.28;;;21.58;83.46
9740;BME280;4909;42.680;26.324;2023-05-29T13:02:44;98305.72;;;21.70;85.16
9740;BME280;4909;42.680;26.324;2023-05-29T13:05:11;98301.72;;;21.74;86.88
9740;BME280;4909;42.680;26.324;2023-05-29T13:07:38;98287.75;;;21.32;82.44
9740;BME280;4909;42.680;26.324;2023-05-29T13:10:05;98293.69;;;21.45;83.80
9740;BME280;4909;42.680;26.324;2023-05-29T13:12:34;98280.03;;;21.47;83.64
9740;BME280;4909;42.680;26.324;2023-05-29T13:15:00;98289.28;;;21.54;84.82
9740;BME280;4909;42.680;26.324;2023-05-29T13:17:27;98269.25;;;21.47;83.81